sensor_id;sensor_type;location;lat;lon;timestamp;pressure;altitude;pressure_sealevel;temperature;humidity
11349;BME280;5729;43.570;27.826;2022-08-19T00:02:25;98607.72;;;24.46;100.00
11349;BME280;5729;43.570;27.826;2022-08-19T00:04:50;98606.50;;;24.47;100.00
11349;BME280;5729;43.570;27.826;2022-08-19T00:07:20;98608.94;;;24.45;100.00
11349;BME280;5729;43.570;27.826;2022-08-19T00:09:46;98611.25;;;24.47;100.00
11349;BME280;5729;43.570;27.826;2022-08-19T00:12:12;98619.34;;;24.41;100.00
11349;BME280;5729;43.570;27.826;2022-08-19T00:14:38;98618.28;;;24.39;100.00
11349;BME280;5729;43.570;27.826;2022-08-19T00:17:05;98594.59;;;24.23;100.00
11349;BME280;5729;43.570;27.826;2022-08-19T00:19:32;98621.03;;;24.30;100.00
11349;BME280;5729;43.570;27.826;2022-08-19T00:21:58;98618.59;;;24.32;100.00
11349;BME280;5729;43.570;27.826;2022-08-19T00:24:24;98613.84;;;24.32;100.00
11349;BME280;5729;43.570;27.826;2022-08-19T00:26:50;98613.53;;;24.30;100.00
11349;BME280;5729;43.570;27.826;2022-08-19T00:29:18;98621.97;;;24.27;100.00
11349;BME280;5729;43.570;27.826;2022-08-19T00:31:45;98627.19;;;24.24;100.00
11349;BME280;5729;43.570;27.826;2022-08-19T00:34:13;98625.47;;;24.27;100.00
11349;BME280;5729;43.570;27.826;2022-08-19T00:36:40;98626.41;;;24.24;100.00
11349;BME280;5729;43.570;27.826;2022-08-19T00:39:07;98620.59;;;24.22;100.00
11349;BME280;5729;43.570;27.826;2022-08-19T00:41:32;98624.53;;;24.21;100.00
11349;BME280;5729;43.570;27.826;2022-08-19T00:46:27;98619.03;;;24.21;100.00
11349;BME280;5729;43.570;27.826;2022-08-19T00:48:53;98624.53;;;24.21;100.00
11349;BME280;5729;43.570;27.826;2022-08-19T00:51:19;98628.97;;;24.18;100.00
11349;BME280;5729;43.570;27.826;2022-08-19T00:53:45;98626.22;;;24.18;100.00
11349;BME280;5729;43.570;27.826;2022-08-19T00:56:11;98624.38;;;24.15;100.00
11349;BME280;5729;43.570;27.826;2022-08-19T00:58:37;98630.81;;;24.12;100.00
11349;BME280;5729;43.570;27.826;2022-08-19T01:01:04;98617.94;;;24.09;100.00
11349;BME280;5729;43.570;27.826;2022-08-19T01:03:30;98621.16;;;24.08;100.00
11349;BME280;5729;43.570;27.826;2022-08-19T01:05:55;98620.09;;;24.05;100.00
11349;BME280;5729;43.570;27.826;2022-08-19T01:08:22;98623.78;;;24.02;100.00
11349;BME280;5729;43.570;27.826;2022-08-19T01:10:50;98626.34;;;23.97;100.00
11349;BME280;5729;43.570;27.826;2022-08-19T01:13:20;98634.28;;;23.95;100.00
11349;BME280;5729;43.570;27.826;2022-08-19T01:15:50;98626.22;;;23.91;100.00
11349;BME280;5729;43.570;27.826;2022-08-19T01:18:19;98621.94;;;23.90;100.00
11349;BME280;5729;43.570;27.826;2022-08-19T01:20:46;98621.28;;;23.86;100.00
11349;BME280;5729;43.570;27.826;2022-08-19T01:23:12;98619.00;;;23.84;100.00
11349;BME280;5729;43.570;27.826;2022-08-19T01:25:45;98594.38;;;23.72;100.00
11349;BME280;5729;43.570;27.826;2022-08-19T01:28:20;98632.00;;;23.84;100.00
11349;BME280;5729;43.570;27.826;2022-08-19T01:30:46;98613.66;;;23.81;100.00
11349;BME280;5729;43.570;27.826;2022-08-19T01:33:12;98615.94;;;23.82;100.00
11349;BME280;5729;43.570;27.826;2022-08-19T01:35:38;98602.16;;;23.64;100.00
11349;BME280;5729;43.570;27.826;2022-08-19T01:38:06;98623.41;;;23.82;100.00
11349;BME280;5729;43.570;27.826;2022-08-19T01:40:34;98619.63;;;23.79;100.00
11349;BME280;5729;43.570;27.826;2022-08-19T01:43:02;98615.91;;;23.73;100.00
11349;BME280;5729;43.570;27.826;2022-08-19T01:45:30;98613.16;;;23.73;100.00
11349;BME280;5729;43.570;27.826;2022-08-19T01:47:57;98617.91;;;23.73;100.00
11349;BME280;5729;43.570;27.826;2022-08-19T01:50:23;98579.50;;;23.51;100.00
11349;BME280;5729;43.570;27.826;2022-08-19T01:52:49;98620.53;;;23.76;100.00
11349;BME280;5729;43.570;27.826;2022-08-19T01:55:19;98606.44;;;23.74;100.00
11349;BME280;5729;43.570;27.826;2022-08-19T01:57:48;98574.31;;;23.53;100.00
11349;BME280;5729;43.570;27.826;2022-08-19T02:00:19;98616.38;;;23.72;100.00
11349;BME280;5729;43.570;27.826;2022-08-19T02:02:45;98614.56;;;23.69;100.00
11349;BME280;5729;43.570;27.826;2022-08-19T02:05:12;98608.44;;;23.65;100.00
11349;BME280;5729;43.570;27.826;2022-08-19T02:07:39;98588.97;;;23.50;100.00
11349;BME280;5729;43.570;27.826;2022-08-19T02:10:09;98603.06;;;23.61;100.00
11349;BME280;5729;43.570;27.826;2022-08-19T02:12:35;98602.00;;;23.59;100.00
11349;BME280;5729;43.570;27.826;2022-08-19T02:15:01;98604.00;;;23.58;100.00
11349;BME280;5729;43.570;27.826;2022-08-19T02:17:28;98598.19;;;23.56;100.00
11349;BME280;5729;43.570;27.826;2022-08-19T02:19:54;98604.13;;;23.55;100.00
11349;BME280;5729;43.570;27.826;2022-08-19T02:22:20;98595.09;;;23.54;100.00
11349;BME280;5729;43.570;27.826;2022-08-19T02:24:46;98595.09;;;23.54;100.00
11349;BME280;5729;43.570;27.826;2022-08-19T02:27:13;98598.31;;;23.52;100.00
11349;BME280;5729;43.570;27.826;2022-08-19T02:29:39;98596.00;;;23.51;100.00
11349;BME280;5729;43.570;27.826;2022-08-19T02:32:04;98592.03;;;23.52;100.00
11349;BME280;5729;43.570;27.826;2022-08-19T02:34:30;98591.59;;;23.53;100.00
11349;BME280;5729;43.570;27.826;2022-08-19T02:36:55;98592.03;;;23.52;100.00
11349;BME280;5729;43.570;27.826;2022-08-19T02:39:20;98595.66;;;23.49;100.00
11349;BME280;5729;43.570;27.826;2022-08-19T02:41:46;98594.78;;;23.52;100.00
11349;BME280;5729;43.570;27.826;2022-08-19T02:44:12;98600.75;;;23.50;100.00
11349;BME280;5729;43.570;27.826;2022-08-19T02:46:37;98591.38;;;23.48;100.00
11349;BME280;5729;43.570;27.826;2022-08-19T02:49:05;98597.81;;;23.45;100.00
11349;BME280;5729;43.570;27.826;2022-08-19T02:51:37;98598.25;;;23.43;100.00
11349;BME280;5729;43.570;27.826;2022-08-19T02:54:05;98591.69;;;23.41;100.00
11349;BME280;5729;43.570;27.826;2022-08-19T02:56:31;98574.06;;;23.29;100.00
11349;BME280;5729;43.570;27.826;2022-08-19T02:58:57;98603.91;;;23.40;100.00
11349;BME280;5729;43.570;27.826;2022-08-19T03:01:27;98602.38;;;23.39;100.00
11349;BME280;5729;43.570;27.826;2022-08-19T03:03:53;98596.72;;;23.33;100.00
11349;BME280;5729;43.570;27.826;2022-08-19T03:06:19;98591.03;;;23.28;100.00
11349;BME280;5729;43.570;27.826;2022-08-19T03:08:47;98595.75;;;23.27;100.00
11349;BME280;5729;43.570;27.826;2022-08-19T03:11:16;98570.84;;;23.12;100.00
11349;BME280;5729;43.570;27.826;2022-08-19T03:13:42;98578.00;;;23.10;100.00
11349;BME280;5729;43.570;27.826;2022-08-19T03:16:09;98603.41;;;23.23;100.00
11349;BME280;5729;43.570;27.826;2022-08-19T03:18:35;98596.69;;;23.24;100.00
11349;BME280;5729;43.570;27.826;2022-08-19T03:21:00;98588.22;;;23.09;100.00
11349;BME280;5729;43.570;27.826;2022-08-19T03:23:26;98596.06;;;23.20;100.00
11349;BME280;5729;43.570;27.826;2022-08-19T03:25:52;98598.94;;;23.16;100.00
11349;BME280;5729;43.570;27.826;2022-08-19T03:28:19;98611.59;;;23.14;100.00
11349;BME280;5729;43.570;27.826;2022-08-19T03:31:16;98621.00;;;23.04;100.00
11349;BME280;5729;43.570;27.826;2022-08-19T03:33:43;98627.47;;;23.10;100.00
11349;BME280;5729;43.570;27.826;2022-08-19T03:36:12;98617.06;;;23.05;100.00
11349;BME280;5729;43.570;27.826;2022-08-19T03:38:42;98613.28;;;23.11;100.00
11349;BME280;5729;43.570;27.826;2022-08-19T03:41:17;98628.56;;;23.12;100.00
11349;BME280;5729;43.570;27.826;2022-08-19T03:43:44;98632.84;;;23.13;100.00
11349;BME280;5729;43.570;27.826;2022-08-19T03:46:15;98634.06;;;23.12;100.00
11349;BME280;5729;43.570;27.826;2022-08-19T03:48:43;98641.97;;;23.10;100.00
11349;BME280;5729;43.570;27.826;2022-08-19T03:51:20;98643.53;;;23.11;100.00
11349;BME280;5729;43.570;27.826;2022-08-19T03:53:46;98654.19;;;23.09;100.00
11349;BME280;5729;43.570;27.826;2022-08-19T03:56:12;98651.56;;;23.06;100.00
11349;BME280;5729;43.570;27.826;2022-08-19T03:58:38;98654.31;;;23.06;100.00
11349;BME280;5729;43.570;27.826;2022-08-19T04:01:08;98661.03;;;23.05;100.00
11349;BME280;5729;43.570;27.826;2022-08-19T04:03:34;98642.19;;;22.94;100.00
11349;BME280;5729;43.570;27.826;2022-08-19T04:06:12;98662.75;;;23.11;100.00
11349;BME280;5729;43.570;27.826;2022-08-19T04:08:40;98664.75;;;23.11;100.00
11349;BME280;5729;43.570;27.826;2022-08-19T04:11:11;98665.75;;;23.04;100.00
11349;BME280;5729;43.570;27.826;2022-08-19T04:13:37;98665.81;;;23.13;100.00
11349;BME280;5729;43.570;27.826;2022-08-19T04:16:04;98675.59;;;23.14;100.00
11349;BME280;5729;43.570;27.826;2022-08-19T04:18:30;98669.63;;;23.16;100.00
11349;BME280;5729;43.570;27.826;2022-08-19T04:20:56;98671.81;;;23.21;100.00
11349;BME280;5729;43.570;27.826;2022-08-19T04:23:23;98645.19;;;23.09;100.00
11349;BME280;5729;43.570;27.826;2022-08-19T04:25:48;98665.09;;;23.22;100.00
11349;BME280;5729;43.570;27.826;2022-08-19T04:28:14;98666.31;;;23.21;100.00
11349;BME280;5729;43.570;27.826;2022-08-19T04:30:41;98663.13;;;23.23;100.00
11349;BME280;5729;43.570;27.826;2022-08-19T04:33:07;98678.69;;;23.26;100.00
11349;BME280;5729;43.570;27.826;2022-08-19T04:35:38;98674.13;;;23.23;100.00
11349;BME280;5729;43.570;27.826;2022-08-19T04:38:04;98664.41;;;23.09;100.00
11349;BME280;5729;43.570;27.826;2022-08-19T04:40:30;98686.69;;;23.33;100.00
11349;BME280;5729;43.570;27.826;2022-08-19T04:43:14;98657.59;;;23.13;100.00
11349;BME280;5729;43.570;27.826;2022-08-19T04:45:44;98675.03;;;23.29;100.00
11349;BME280;5729;43.570;27.826;2022-08-19T04:48:11;98678.75;;;23.35;100.00
11349;BME280;5729;43.570;27.826;2022-08-19T04:50:40;98693.72;;;23.34;100.00
11349;BME280;5729;43.570;27.826;2022-08-19T04:53:07;98651.34;;;23.22;100.00
11349;BME280;5729;43.570;27.826;2022-08-19T04:55:32;98684.44;;;23.49;100.00
11349;BME280;5729;43.570;27.826;2022-08-19T04:57:58;98682.31;;;23.44;100.00
11349;BME280;5729;43.570;27.826;2022-08-19T05:00:24;98683.13;;;23.54;100.00
11349;BME280;5729;43.570;27.826;2022-08-19T05:02:50;98688.66;;;23.63;100.00
11349;BME280;5729;43.570;27.826;2022-08-19T05:05:16;98682.69;;;23.65;100.00
11349;BME280;5729;43.570;27.826;2022-08-19T05:07:42;98692.97;;;23.73;100.00
11349;BME280;5729;43.570;27.826;2022-08-19T05:10:07;98696.16;;;23.72;100.00
11349;BME280;5729;43.570;27.826;2022-08-19T05:12:33;98702.63;;;23.78;100.00
11349;BME280;5729;43.570;27.826;2022-08-19T05:14:59;98712.44;;;23.88;100.00
11349;BME280;5729;43.570;27.826;2022-08-19T05:17:26;98702.97;;;23.98;100.00
11349;BME280;5729;43.570;27.826;2022-08-19T05:19:52;98709.88;;;24.03;100.00
11349;BME280;5729;43.570;27.826;2022-08-19T05:22:36;98705.16;;;24.12;100.00
11349;BME280;5729;43.570;27.826;2022-08-19T05:25:05;98699.19;;;24.14;100.00
11349;BME280;5729;43.570;27.826;2022-08-19T05:27:31;98694.13;;;24.12;100.00
11349;BME280;5729;43.570;27.826;2022-08-19T05:29:57;98707.28;;;24.17;100.00
11349;BME280;5729;43.570;27.826;2022-08-19T05:32:23;98698.91;;;24.30;100.00
11349;BME280;5729;43.570;27.826;2022-08-19T05:34:48;98700.31;;;24.35;100.00
11349;BME280;5729;43.570;27.826;2022-08-19T05:37:14;98707.34;;;24.36;100.00
11349;BME280;5729;43.570;27.826;2022-08-19T05:39:40;98676.22;;;24.17;100.00
11349;BME280;5729;43.570;27.826;2022-08-19T05:42:11;98697.88;;;24.37;100.00
11349;BME280;5729;43.570;27.826;2022-08-19T05:44:42;98698.94;;;24.48;100.00
11349;BME280;5729;43.570;27.826;2022-08-19T05:47:13;98703.69;;;24.48;100.00
11349;BME280;5729;43.570;27.826;2022-08-19T05:49:40;98673.22;;;24.42;100.00
11349;BME280;5729;43.570;27.826;2022-08-19T05:52:11;98708.72;;;24.68;100.00
11349;BME280;5729;43.570;27.826;2022-08-19T05:54:38;98702.28;;;24.71;100.00
11349;BME280;5729;43.570;27.826;2022-08-19T05:57:07;98698.28;;;24.81;100.00
11349;BME280;5729;43.570;27.826;2022-08-19T05:59:32;98694.75;;;24.89;100.00
11349;BME280;5729;43.570;27.826;2022-08-19T06:02:00;98679.63;;;24.76;100.00
11349;BME280;5729;43.570;27.826;2022-08-19T06:04:26;98694.47;;;24.96;100.00
11349;BME280;5729;43.570;27.826;2022-08-19T06:06:52;98689.56;;;25.01;100.00
11349;BME280;5729;43.570;27.826;2022-08-19T06:09:19;98696.56;;;25.11;100.00
11349;BME280;5729;43.570;27.826;2022-08-19T06:11:47;98685.38;;;25.14;100.00
11349;BME280;5729;43.570;27.826;2022-08-19T06:14:16;98673.41;;;25.17;100.00
11349;BME280;5729;43.570;27.826;2022-08-19T06:16:44;98694.19;;;25.37;100.00
11349;BME280;5729;43.570;27.826;2022-08-19T06:19:13;98676.44;;;25.38;100.00
11349;BME280;5729;43.570;27.826;2022-08-19T06:21:40;98684.50;;;25.50;100.00
11349;BME280;5729;43.570;27.826;2022-08-19T06:24:09;98679.28;;;25.43;100.00
11349;BME280;5729;43.570;27.826;2022-08-19T06:26:37;98676.63;;;25.58;100.00
11349;BME280;5729;43.570;27.826;2022-08-19T06:29:05;98682.00;;;25.52;100.00
11349;BME280;5729;43.570;27.826;2022-08-19T06:31:32;98682.75;;;25.71;100.00
11349;BME280;5729;43.570;27.826;2022-08-19T06:34:00;98686.50;;;25.83;100.00
11349;BME280;5729;43.570;27.826;2022-08-19T06:36:31;98642.44;;;25.64;100.00
11349;BME280;5729;43.570;27.826;2022-08-19T06:39:01;98677.22;;;25.95;100.00
11349;BME280;5729;43.570;27.826;2022-08-19T06:41:28;98676.28;;;25.98;100.00
11349;BME280;5729;43.570;27.826;2022-08-19T06:43:54;98680.16;;;25.91;100.00
11349;BME280;5729;43.570;27.826;2022-08-19T06:46:20;98685.63;;;26.00;100.00
11349;BME280;5729;43.570;27.826;2022-08-19T06:48:47;98678.50;;;26.09;100.00
11349;BME280;5729;43.570;27.826;2022-08-19T06:51:15;98672.34;;;26.14;100.00
11349;BME280;5729;43.570;27.826;2022-08-19T06:53:44;98671.22;;;26.20;100.00
11349;BME280;5729;43.570;27.826;2022-08-19T06:56:12;98677.19;;;26.28;100.00
11349;BME280;5729;43.570;27.826;2022-08-19T06:58:38;98672.06;;;26.35;100.00
11349;BME280;5729;43.570;27.826;2022-08-19T07:01:04;98683.22;;;26.41;100.00
11349;BME280;5729;43.570;27.826;2022-08-19T07:03:32;98674.94;;;26.41;100.00
11349;BME280;5729;43.570;27.826;2022-08-19T07:06:03;98667.50;;;26.47;100.00
11349;BME280;5729;43.570;27.826;2022-08-19T07:08:29;98673.31;;;26.49;100.00
11349;BME280;5729;43.570;27.826;2022-08-19T07:10:54;98669.72;;;26.58;100.00
11349;BME280;5729;43.570;27.826;2022-08-19T07:13:20;98666.84;;;26.67;100.00
11349;BME280;5729;43.570;27.826;2022-08-19T07:15:47;98678.03;;;26.72;100.00
11349;BME280;5729;43.570;27.826;2022-08-19T07:18:12;98664.28;;;26.78;100.00
11349;BME280;5729;43.570;27.826;2022-08-19T07:20:39;98667.94;;;26.84;100.00
11349;BME280;5729;43.570;27.826;2022-08-19T07:23:05;98637.78;;;26.71;100.00
11349;BME280;5729;43.570;27.826;2022-08-19T07:25:30;98660.00;;;26.92;100.00
11349;BME280;5729;43.570;27.826;2022-08-19T07:27:56;98655.22;;;26.77;100.00
11349;BME280;5729;43.570;27.826;2022-08-19T07:30:21;98670.22;;;27.00;100.00
11349;BME280;5729;43.570;27.826;2022-08-19T07:32:48;98657.28;;;27.06;100.00
11349;BME280;5729;43.570;27.826;2022-08-19T07:35:15;98663.00;;;27.18;100.00
11349;BME280;5729;43.570;27.826;2022-08-19T07:37:44;98663.16;;;27.29;100.00
11349;BME280;5729;43.570;27.826;2022-08-19T07:40:10;98660.84;;;27.42;100.00
11349;BME280;5729;43.570;27.826;2022-08-19T07:42:36;98658.09;;;27.42;100.00
11349;BME280;5729;43.570;27.826;2022-08-19T07:45:04;98653.00;;;27.55;100.00
11349;BME280;5729;43.570;27.826;2022-08-19T07:47:30;98656.69;;;27.67;100.00
11349;BME280;5729;43.570;27.826;2022-08-19T07:49:56;98658.59;;;27.75;100.00
11349;BME280;5729;43.570;27.826;2022-08-19T07:52:21;98640.38;;;27.69;100.00
11349;BME280;5729;43.570;27.826;2022-08-19T07:54:48;98624.72;;;27.66;100.00
11349;BME280;5729;43.570;27.826;2022-08-19T07:57:15;98646.19;;;27.91;100.00
11349;BME280;5729;43.570;27.826;2022-08-19T07:59:40;98657.41;;;28.02;100.00
11349;BME280;5729;43.570;27.826;2022-08-19T08:02:06;98652.22;;;28.10;100.00
11349;BME280;5729;43.570;27.826;2022-08-19T08:04:32;98667.00;;;28.22;100.00
11349;BME280;5729;43.570;27.826;2022-08-19T08:07:17;98651.59;;;28.41;100.00
11349;BME280;5729;43.570;27.826;2022-08-19T08:10:00;98657.59;;;28.60;100.00
11349;BME280;5729;43.570;27.826;2022-08-19T08:12:34;98655.13;;;28.67;100.00
11349;BME280;5729;43.570;27.826;2022-08-19T08:15:02;98646.53;;;28.85;100.00
11349;BME280;5729;43.570;27.826;2022-08-19T08:17:30;98651.81;;;29.15;100.00
11349;BME280;5729;43.570;27.826;2022-08-19T08:19:57;98650.59;;;29.53;100.00
11349;BME280;5729;43.570;27.826;2022-08-19T08:22:23;98653.72;;;29.72;100.00
11349;BME280;5729;43.570;27.826;2022-08-19T08:25:14;98658.13;;;29.95;100.00
11349;BME280;5729;43.570;27.826;2022-08-19T08:27:42;98656.56;;;30.48;100.00
11349;BME280;5729;43.570;27.826;2022-08-19T08:30:10;98658.94;;;31.38;100.00
11349;BME280;5729;43.570;27.826;2022-08-19T08:32:38;98673.16;;;32.84;89.60
11349;BME280;5729;43.570;27.826;2022-08-19T08:35:10;98657.00;;;33.37;85.45
11349;BME280;5729;43.570;27.826;2022-08-19T08:37:36;98652.44;;;35.59;66.69
11349;BME280;5729;43.570;27.826;2022-08-19T08:42:51;98649.22;;;39.81;43.73
11349;BME280;5729;43.570;27.826;2022-08-19T08:45:20;98650.94;;;40.96;40.71
11349;BME280;5729;43.570;27.826;2022-08-19T08:47:50;98648.59;;;42.65;37.05
11349;BME280;5729;43.570;27.826;2022-08-19T08:50:27;98648.91;;;44.48;33.43
11349;BME280;5729;43.570;27.826;2022-08-19T08:52:56;98646.41;;;45.67;30.15
11349;BME280;5729;43.570;27.826;2022-08-19T08:55:27;98657.38;;;44.68;30.92
11349;BME280;5729;43.570;27.826;2022-08-19T08:58:06;98647.19;;;42.13;33.80
11349;BME280;5729;43.570;27.826;2022-08-19T09:00:37;98645.19;;;41.88;34.98
11349;BME280;5729;43.570;27.826;2022-08-19T09:03:07;98656.22;;;42.46;33.56
11349;BME280;5729;43.570;27.826;2022-08-19T09:06:02;98649.88;;;41.76;34.74
11349;BME280;5729;43.570;27.826;2022-08-19T09:11:31;98652.63;;;42.89;32.66
11349;BME280;5729;43.570;27.826;2022-08-19T09:17:28;98654.75;;;43.54;32.68
11349;BME280;5729;43.570;27.826;2022-08-19T09:22:34;98648.28;;;45.00;30.26
11349;BME280;5729;43.570;27.826;2022-08-19T09:25:01;98652.97;;;45.48;29.90
11349;BME280;5729;43.570;27.826;2022-08-19T09:27:27;98654.22;;;44.73;28.93
11349;BME280;5729;43.570;27.826;2022-08-19T09:29:53;98656.34;;;43.38;30.56
11349;BME280;5729;43.570;27.826;2022-08-19T09:32:19;98663.41;;;43.00;30.85
11349;BME280;5729;43.570;27.826;2022-08-19T09:34:45;98651.78;;;43.62;30.51
11349;BME280;5729;43.570;27.826;2022-08-19T09:37:11;98654.47;;;44.27;30.63
11349;BME280;5729;43.570;27.826;2022-08-19T09:39:38;98656.56;;;44.36;29.49
11349;BME280;5729;43.570;27.826;2022-08-19T09:42:04;98667.19;;;42.15;31.62
11349;BME280;5729;43.570;27.826;2022-08-19T09:44:30;98657.25;;;41.54;32.56
11349;BME280;5729;43.570;27.826;2022-08-19T09:46:55;98668.44;;;42.21;31.42
11349;BME280;5729;43.570;27.826;2022-08-19T09:49:21;98656.16;;;43.26;30.68
11349;BME280;5729;43.570;27.826;2022-08-19T09:51:51;98658.84;;;43.99;29.23
11349;BME280;5729;43.570;27.826;2022-08-19T09:54:17;98661.19;;;43.64;28.97
11349;BME280;5729;43.570;27.826;2022-08-19T09:56:43;98658.75;;;42.42;30.37
11349;BME280;5729;43.570;27.826;2022-08-19T09:59:09;98660.84;;;41.55;34.71
11349;BME280;5729;43.570;27.826;2022-08-19T10:01:37;98656.28;;;41.17;33.29
11349;BME280;5729;43.570;27.826;2022-08-19T10:04:03;98658.16;;;40.90;31.95
11349;BME280;5729;43.570;27.826;2022-08-19T10:06:33;98669.72;;;39.89;35.07
11349;BME280;5729;43.570;27.826;2022-08-19T10:08:59;98666.22;;;40.61;34.49
11349;BME280;5729;43.570;27.826;2022-08-19T10:11:25;98665.84;;;41.22;33.20
11349;BME280;5729;43.570;27.826;2022-08-19T10:13:51;98664.94;;;42.13;31.46
11349;BME280;5729;43.570;27.826;2022-08-19T10:16:20;98666.31;;;42.83;30.28
11349;BME280;5729;43.570;27.826;2022-08-19T10:18:48;98665.28;;;42.00;31.08
11349;BME280;5729;43.570;27.826;2022-08-19T10:23:46;98661.34;;;43.10;29.76
11349;BME280;5729;43.570;27.826;2022-08-19T10:26:19;98621.00;;;43.02;29.38
11349;BME280;5729;43.570;27.826;2022-08-19T10:28:45;98646.00;;;43.23;28.66
11349;BME280;5729;43.570;27.826;2022-08-19T10:31:14;98639.25;;;43.65;30.17
11349;BME280;5729;43.570;27.826;2022-08-19T10:33:41;98649.75;;;43.26;28.44
11349;BME280;5729;43.570;27.826;2022-08-19T10:36:16;98651.25;;;42.90;29.94
11349;BME280;5729;43.570;27.826;2022-08-19T10:38:50;98640.09;;;42.65;29.05
11349;BME280;5729;43.570;27.826;2022-08-19T10:41:21;98642.72;;;42.81;28.60
11349;BME280;5729;43.570;27.826;2022-08-19T10:43:51;98647.28;;;43.13;29.72
11349;BME280;5729;43.570;27.826;2022-08-19T10:46:17;98649.34;;;42.66;29.29
11349;BME280;5729;43.570;27.826;2022-08-19T10:48:44;98634.81;;;43.25;29.32
11349;BME280;5729;43.570;27.826;2022-08-19T10:51:10;98647.97;;;42.84;28.96
11349;BME280;5729;43.570;27.826;2022-08-19T10:53:55;98643.94;;;42.87;29.56
11349;BME280;5729;43.570;27.826;2022-08-19T10:56:21;98628.13;;;42.57;29.98
11349;BME280;5729;43.570;27.826;2022-08-19T10:59:06;98650.59;;;41.77;29.36
11349;BME280;5729;43.570;27.826;2022-08-19T11:01:32;98640.91;;;42.04;30.05
11349;BME280;5729;43.570;27.826;2022-08-19T11:04:00;98635.00;;;41.76;31.20
11349;BME280;5729;43.570;27.826;2022-08-19T11:06:26;98639.69;;;42.25;30.61
11349;BME280;5729;43.570;27.826;2022-08-19T11:08:53;98649.47;;;41.62;29.97
11349;BME280;5729;43.570;27.826;2022-08-19T11:11:20;98639.63;;;40.39;30.36
11349;BME280;5729;43.570;27.826;2022-08-19T11:13:47;98626.06;;;40.38;31.06
11349;BME280;5729;43.570;27.826;2022-08-19T11:16:16;98629.47;;;39.81;31.86
11349;BME280;5729;43.570;27.826;2022-08-19T11:18:45;98635.97;;;38.39;33.44
11349;BME280;5729;43.570;27.826;2022-08-19T11:21:14;98635.19;;;38.38;35.46
11349;BME280;5729;43.570;27.826;2022-08-19T11:23:43;98622.34;;;39.72;34.52
11349;BME280;5729;43.570;27.826;2022-08-19T11:26:09;98630.34;;;40.79;33.01
11349;BME280;5729;43.570;27.826;2022-08-19T11:28:35;98623.66;;;41.76;31.81
11349;BME280;5729;43.570;27.826;2022-08-19T11:31:01;98623.84;;;42.66;31.18
11349;BME280;5729;43.570;27.826;2022-08-19T11:33:29;98601.28;;;42.95;29.23
11349;BME280;5729;43.570;27.826;2022-08-19T11:35:58;98627.56;;;42.68;28.50
11349;BME280;5729;43.570;27.826;2022-08-19T11:38:25;98622.97;;;41.67;30.50
11349;BME280;5729;43.570;27.826;2022-08-19T11:40:58;98619.16;;;42.34;29.41
11349;BME280;5729;43.570;27.826;2022-08-19T11:43:24;98620.50;;;42.33;29.35
11349;BME280;5729;43.570;27.826;2022-08-19T11:45:49;98622.09;;;41.23;29.40
11349;BME280;5729;43.570;27.826;2022-08-19T11:48:15;98614.13;;;40.14;31.00
11349;BME280;5729;43.570;27.826;2022-08-19T11:50:40;98607.66;;;40.21;31.62
11349;BME280;5729;43.570;27.826;2022-08-19T11:53:07;98581.50;;;40.61;34.19
11349;BME280;5729;43.570;27.826;2022-08-19T11:55:37;98603.31;;;41.35;31.35
11349;BME280;5729;43.570;27.826;2022-08-19T11:58:04;98598.44;;;41.11;30.49
11349;BME280;5729;43.570;27.826;2022-08-19T12:00:32;98599.84;;;40.77;32.83
11349;BME280;5729;43.570;27.826;2022-08-19T12:02:59;98590.13;;;40.63;31.52
11349;BME280;5729;43.570;27.826;2022-08-19T12:05:24;98585.25;;;40.88;31.02
11349;BME280;5729;43.570;27.826;2022-08-19T12:07:50;98603.09;;;40.74;30.78
11349;BME280;5729;43.570;27.826;2022-08-19T12:10:15;98603.13;;;39.78;32.05
11349;BME280;5729;43.570;27.826;2022-08-19T12:12:41;98595.31;;;38.78;33.02
11349;BME280;5729;43.570;27.826;2022-08-19T12:15:09;98591.00;;;38.84;32.61
11349;BME280;5729;43.570;27.826;2022-08-19T12:17:36;98595.69;;;39.35;33.42
11349;BME280;5729;43.570;27.826;2022-08-19T12:20:01;98589.47;;;40.07;31.22
11349;BME280;5729;43.570;27.826;2022-08-19T12:22:27;98576.75;;;40.39;30.69
11349;BME280;5729;43.570;27.826;2022-08-19T12:24:53;98551.66;;;40.10;30.02
11349;BME280;5729;43.570;27.826;2022-08-19T12:27:20;98553.38;;;39.58;31.34
11349;BME280;5729;43.570;27.826;2022-08-19T12:29:45;98572.44;;;39.12;31.78
11349;BME280;5729;43.570;27.826;2022-08-19T12:32:11;98574.72;;;38.09;32.98
11349;BME280;5729;43.570;27.826;2022-08-19T12:34:36;98590.56;;;37.06;34.23
11349;BME280;5729;43.570;27.826;2022-08-19T12:37:04;98581.84;;;36.34;35.92
11349;BME280;5729;43.570;27.826;2022-08-19T12:39:33;98578.97;;;36.47;36.13
11349;BME280;5729;43.570;27.826;2022-08-19T12:41:58;98579.59;;;37.16;37.37
11349;BME280;5729;43.570;27.826;2022-08-19T12:44:24;98564.50;;;37.91;34.99
11349;BME280;5729;43.570;27.826;2022-08-19T12:46:50;98569.97;;;38.70;34.34
11349;BME280;5729;43.570;27.826;2022-08-19T12:49:15;98575.81;;;39.10;32.78
11349;BME280;5729;43.570;27.826;2022-08-19T12:51:41;98561.31;;;39.29;31.30
11349;BME280;5729;43.570;27.826;2022-08-19T12:54:06;98575.97;;;39.50;31.12
11349;BME280;5729;43.570;27.826;2022-08-19T12:56:32;98568.81;;;39.42;31.15
11349;BME280;5729;43.570;27.826;2022-08-19T12:59:02;98574.25;;;38.48;31.75
11349;BME280;5729;43.570;27.826;2022-08-19T13:01:28;98550.03;;;37.51;32.39
11349;BME280;5729;43.570;27.826;2022-08-19T13:03:55;98558.06;;;37.75;33.08
11349;BME280;5729;43.570;27.826;2022-08-19T13:06:21;98566.13;;;38.22;35.54
11349;BME280;5729;43.570;27.826;2022-08-19T13:08:46;98565.09;;;38.94;32.61
11349;BME280;5729;43.570;27.826;2022-08-19T13:11:15;98529.75;;;39.23;31.58
11349;BME280;5729;43.570;27.826;2022-08-19T13:13:44;98544.94;;;39.43;30.38